createdAt,value
2023-05-10T00:01:13.314Z,73.2894751031872
2023-05-10T00:04:08.940Z,72.93983816385176
2023-05-10T00:07:04.389Z,73.27764062129049
2023-05-10T00:09:59.986Z,73.10498832616331
2023-05-10T00:12:55.555Z,74.1138998281259
2023-05-10T00:15:51.110Z,73.60263859188262
2023-05-10T00:18:46.638Z,73.8065472726825
2023-05-10T00:21:42.225Z,73.94018203824702
2023-05-10T00:24:37.747Z,74.46911403091792
2023-05-10T00:27:33.329Z,74.42824295517642
2023-05-10T00:30:28.865Z,74.5845490159579
2023-05-10T00:33:24.447Z,74.65346972966417
2023-05-10T00:36:20.009Z,74.62699624348441
2023-05-10T00:39:15.530Z,75.07511189025712
2023-05-10T00:42:11.142Z,75.2872352042284
2023-05-10T00:45:07.699Z,74.83967549832767
2023-05-10T00:48:05.784Z,75.75231933613246
2023-05-10T00:51:01.830Z,75.47945014296837
2023-05-10T00:53:59.375Z,75.38149286689301
2023-05-10T00:56:57.930Z,75.9325165136169
2023-05-10T00:59:54.508Z,75.62410712664386
2023-05-10T01:02:51.344Z,76.22326511537032
2023-05-10T01:05:46.628Z,76.38142758332718
2023-05-10T01:08:43.158Z,76.89359600995483
2023-05-10T01:11:39.738Z,76.74627677183379
2023-05-10T01:14:37.357Z,76.2879213693122
2023-05-10T01:17:34.830Z,76.99989252157678
2023-05-10T01:20:33.491Z,77.5034244001563
2023-05-10T01:23:46.931Z,77.53320699171961
2023-05-10T01:27:00.452Z,76.85585054637642
2023-05-10T01:30:16.159Z,77.0420206011743
2023-05-10T01:33:18.497Z,77.28189055579928
2023-05-10T01:36:27.085Z,76.72375314249037
2023-05-10T01:42:38.082Z,76.35296052822837
2023-05-10T01:45:42.633Z,76.65718292798928
2023-05-10T01:48:47.195Z,75.8008199291102
2023-05-10T01:51:47.664Z,76.74679801204908
2023-05-10T01:57:57.777Z,75.78738002567796
2023-05-10T02:00:54.368Z,76.12502891901202
2023-05-10T02:03:53.884Z,75.05537615187983
2023-05-10T02:06:52.483Z,75.69186610614759
2023-05-10T02:09:49.062Z,75.36128629352535
2023-05-10T02:12:47.644Z,75.61503898690025
2023-05-10T02:15:45.108Z,75.21475987371785
2023-05-10T02:18:41.665Z,76.84071456861037
2023-05-10T02:21:38.200Z,74.40012892117731
2023-05-10T02:24:36.776Z,74.5932244934259
2023-05-10T02:27:34.348Z,74.78436351910491
2023-05-10T02:30:31.903Z,75.70438572202002
2023-05-10T02:33:30.478Z,75.41427415686891
2023-05-10T02:36:27.997Z,75.39471432886727
2023-05-10T02:39:25.546Z,75.84117133950866
2023-05-10T02:42:26.122Z,76.21971265681242
2023-05-10T02:45:26.689Z,75.8166428754197
2023-05-10T02:48:22.213Z,75.3917189918322
2023-05-10T02:51:19.790Z,75.7801656407412
2023-05-10T02:54:19.297Z,75.34601887355207
2023-05-10T02:57:23.901Z,76.6175118300223
2023-05-10T03:00:20.432Z,75.58498655530894
2023-05-10T03:03:16.012Z,76.87531177052158
2023-05-10T03:06:11.574Z,75.5882791574534
2023-05-10T03:09:10.121Z,76.53881122594984
2023-05-10T03:12:16.715Z,76.35381094070749
2023-05-10T03:15:23.202Z,76.630383557865
2023-05-10T03:18:23.760Z,77.19989474828692
2023-05-10T03:21:24.295Z,77.93309945495807
2023-05-10T03:24:25.837Z,77.5889557743621
2023-05-10T03:27:23.391Z,77.879549633116
2023-05-10T03:30:19.954Z,76.64225854584339
2023-05-10T03:33:15.508Z,77.02725784962827
2023-05-10T03:36:12.060Z,78.14387185555094
2023-05-10T03:39:07.627Z,77.67373142898431
2023-05-10T03:42:03.194Z,77.4795657325431
2023-05-10T03:44:58.738Z,77.3614408622427
2023-05-10T03:47:54.334Z,76.70109385225018
2023-05-10T03:50:50.866Z,78.364525745474
2023-05-10T03:53:46.472Z,76.60669060115015
2023-05-10T03:56:42.006Z,76.47772905381774
2023-05-10T03:59:39.569Z,77.90726499455485
2023-05-10T04:02:35.262Z,76.54775183947805
2023-05-10T04:05:30.671Z,77.27431152980532
2023-05-10T04:08:26.233Z,75.7387331906524
2023-05-10T04:11:22.811Z,76.92480319067208
2023-05-10T04:14:18.364Z,76.55708231370441
2023-05-10T04:17:14.032Z,75.23708953645489
2023-05-10T04:20:10.477Z,74.95358089501059
2023-05-10T04:23:06.004Z,72.21248757790936
2023-05-10T04:26:01.601Z,71.74956422828734
2023-05-10T04:28:57.191Z,71.24565647986046
2023-05-10T04:31:52.682Z,71.66882709592825
2023-05-10T04:34:48.238Z,72.85519491474541
2023-05-10T04:37:43.815Z,70.9187118149877
2023-05-10T04:40:40.447Z,71.36259229699962
2023-05-10T04:43:36.978Z,72.73288635142335
2023-05-10T04:46:32.586Z,71.85906468541077
2023-05-10T04:49:28.097Z,69.8214866461741
2023-05-10T04:52:23.673Z,69.77019097030454
2023-05-10T04:55:19.199Z,70.36957509467817
2023-05-10T04:58:14.791Z,71.68702002450395
2023-05-10T05:01:12.357Z,70.30680475667425
2023-05-10T05:04:07.875Z,71.48034780229919
2023-05-10T05:07:03.477Z,68.844084276739
2023-05-10T05:09:58.971Z,70.47002534754961
2023-05-10T05:12:54.582Z,69.27957285754073
2023-05-10T05:15:50.171Z,70.45357412147223
2023-05-10T05:18:45.718Z,67.77647165556212
2023-05-10T05:21:46.285Z,66.85050437097904
2023-05-10T05:24:42.813Z,67.19039340577447
2023-05-10T05:27:38.373Z,66.22087557151873
2023-05-10T05:30:33.923Z,67.05231975819845
2023-05-10T05:33:30.503Z,65.99731266553339
2023-05-10T05:36:26.096Z,64.813398568218
2023-05-10T05:39:21.594Z,64.653396883203
2023-05-10T05:42:19.163Z,64.88210023944418
2023-05-10T05:45:14.956Z,63.2431435310967
2023-05-10T05:48:10.408Z,63.000107568440185
2023-05-10T05:51:07.397Z,64.13192472968913
2023-05-10T05:54:05.447Z,63.35380202771053
2023-05-10T05:57:01.964Z,61.525887023880635
2023-05-10T05:59:57.497Z,63.205084474764995
2023-05-10T06:02:53.214Z,63.973852141270335
2023-05-10T06:05:54.643Z,63.57632784960867
2023-05-10T06:08:50.241Z,62.23695386773461
2023-05-10T06:11:46.867Z,63.322226696829034
2023-05-10T06:14:42.326Z,60.8461014855562
2023-05-10T06:17:39.966Z,61.35282964457916
2023-05-10T06:20:36.441Z,60.7954473207827
2023-05-10T06:23:32.028Z,59.465174807980134
2023-05-10T06:26:27.579Z,59.26701965425725
2023-05-10T06:29:23.142Z,58.23966003909281
2023-05-10T06:32:18.670Z,59.32982238637393
2023-05-10T06:35:16.504Z,57.22044377201737
2023-05-10T06:38:12.800Z,57.457127688070194
2023-05-10T06:41:08.346Z,56.144727769437516
2023-05-10T06:44:04.931Z,56.137089832557116
2023-05-10T06:47:01.494Z,55.192164049111035
2023-05-10T06:49:57.081Z,54.935368191087
2023-05-10T06:52:53.147Z,55.27345218468693
2023-05-10T06:55:50.110Z,56.107480695119335
2023-05-10T06:58:46.768Z,56.243068770342425
2023-05-10T07:01:42.285Z,54.448720954633
2023-05-10T07:04:39.862Z,53.75706983509379
2023-05-10T07:07:35.432Z,53.6298643718837
2023-05-10T07:10:31.949Z,54.72571675327219
2023-05-10T07:13:27.561Z,55.1513787719082
2023-05-10T07:16:24.111Z,53.368447670200794
2023-05-10T07:19:20.704Z,54.694488030950545
2023-05-10T07:22:17.179Z,54.28444428876141
2023-05-10T07:25:12.727Z,50.40613396254377
2023-05-10T07:28:09.286Z,49.81151797105922
2023-05-10T07:31:06.017Z,50.97902743159174
2023-05-10T07:34:01.441Z,51.21913138282283
2023-05-10T07:36:58.996Z,50.120114809152675
2023-05-10T07:39:54.555Z,50.92702988662354
2023-05-10T07:42:50.093Z,50.70435165087437
2023-05-10T07:45:45.718Z,51.018036750165116
2023-05-10T07:48:42.229Z,51.48767027568604
2023-05-10T07:51:39.779Z,50.991632775856694
2023-05-10T07:54:35.318Z,51.069592163237196
2023-05-10T07:57:32.891Z,53.05467169654168
2023-05-10T08:00:28.466Z,51.82884521664693
2023-05-10T08:03:24.134Z,48.22268180046997
2023-05-10T08:06:20.584Z,49.40039299372519
2023-05-10T08:09:19.155Z,47.31003517806974
2023-05-10T08:12:14.683Z,47.88457194929197
2023-05-10T08:15:11.250Z,45.35045550266989
2023-05-10T08:18:06.941Z,47.91646880275268
2023-05-10T08:21:02.346Z,48.126810059637776
2023-05-10T08:23:58.947Z,46.7055433641555
2023-05-10T08:26:54.510Z,47.10090747419232
2023-05-10T08:29:50.713Z,46.429130856949406
2023-05-10T08:32:46.632Z,45.55625882888538
2023-05-10T08:35:42.202Z,46.53262355075448
2023-05-10T08:38:38.792Z,45.7220412544868
2023-05-10T08:41:36.281Z,46.27751914751399
2023-05-10T08:44:36.922Z,46.639003076556435
2023-05-10T08:47:36.413Z,46.87832789206877
2023-05-10T08:50:34.964Z,44.027040466554745
2023-05-10T08:53:34.509Z,47.26740039185426
2023-05-10T08:56:30.052Z,44.323317527367884
2023-05-10T08:59:25.639Z,44.79484541454597
2023-05-10T09:02:23.180Z,45.445291331502624
2023-05-10T09:05:20.151Z,44.93128987685423
2023-05-10T09:08:17.449Z,45.15587260587135
2023-05-10T09:11:16.874Z,44.82810690178214
2023-05-10T09:14:13.464Z,44.994890431820735
2023-05-10T09:17:10.018Z,45.442546788313095
2023-05-10T09:20:06.538Z,44.76305224679334
2023-05-10T09:23:03.108Z,45.216590181980784
2023-05-10T09:26:04.639Z,45.322612195534646
2023-05-10T09:29:04.232Z,45.32239665560184
2023-05-10T09:32:04.739Z,44.5819577876871
2023-05-10T09:35:07.308Z,44.54785729559434
2023-05-10T09:38:04.869Z,44.937254174258
2023-05-10T09:41:03.409Z,44.53818171902028
2023-05-10T09:43:59.969Z,42.68374901113702
2023-05-10T09:46:55.674Z,42.857234489377866
2023-05-10T09:49:52.062Z,42.967294111041326
2023-05-10T09:52:48.623Z,42.93163066454659
2023-05-10T09:55:46.177Z,43.01170341124628
2023-05-10T09:58:42.713Z,41.99659248468398
2023-05-10T10:01:48.299Z,42.66060390684762
2023-05-10T10:04:44.912Z,41.52971883920363
2023-05-10T10:07:40.401Z,41.0260866708932
2023-05-10T10:10:36.986Z,41.21212316560145
2023-05-10T10:13:33.688Z,42.04849652798482
2023-05-10T10:16:35.120Z,41.329313245146324
2023-05-10T10:19:33.634Z,39.948405368125314
2023-05-10T10:22:29.168Z,36.54827384380055
2023-05-10T10:25:25.774Z,38.32175246602003
2023-05-10T10:28:32.450Z,39.489713037647455
2023-05-10T10:31:33.900Z,38.53731381036453
2023-05-10T10:34:34.374Z,35.47617705467468
2023-05-10T10:37:41.868Z,34.44544423098303
2023-05-10T10:40:43.439Z,34.776533895762974
2023-05-10T10:43:49.006Z,36.29297528248842
2023-05-10T10:46:52.578Z,36.55086967664638
2023-05-10T10:49:52.091Z,36.80989891529084
2023-05-10T10:52:53.671Z,35.93187200272642
2023-05-10T10:55:56.166Z,34.592020741773894
2023-05-10T10:59:00.737Z,37.43717879314585
2023-05-10T11:01:56.272Z,39.13267675502516
2023-05-10T11:04:52.959Z,36.14319381585581
2023-05-10T11:07:54.371Z,35.393840910790956
2023-05-10T11:10:52.945Z,36.555078779071565
2023-05-10T11:13:51.421Z,36.79014311791143
2023-05-10T11:16:50.145Z,36.085376748268004
2023-05-10T11:19:51.577Z,34.680681460180395
2023-05-10T11:22:51.162Z,35.61633255334041
2023-05-10T11:25:56.700Z,33.31067771198608
2023-05-10T11:28:54.270Z,32.32045116384663
2023-05-10T11:31:51.796Z,32.99630105514704
2023-05-10T11:34:52.352Z,33.401615615972275
2023-05-10T11:37:48.926Z,35.856167560353356
2023-05-10T11:40:46.484Z,34.49625019927926
2023-05-10T11:43:47.007Z,31.907338365694553
2023-05-10T11:46:46.672Z,33.10919639700748
2023-05-10T11:49:44.102Z,34.95710975025153
2023-05-10T11:52:40.654Z,34.25380582178456
2023-05-10T11:55:37.242Z,32.80047361634469
2023-05-10T11:58:34.788Z,34.41043339326985
2023-05-10T12:01:32.378Z,35.45176822287143
2023-05-10T12:04:31.936Z,34.70263558711559
2023-05-10T12:07:28.633Z,34.379846568882286
2023-05-10T12:10:36.004Z,32.278053711461254
2023-05-10T12:13:31.524Z,33.74726091170639
2023-05-10T12:16:31.458Z,31.520168834681687
2023-05-10T12:19:28.754Z,30.689139795300754
2023-05-10T12:22:25.198Z,32.96201529298199
2023-05-10T12:25:23.766Z,33.597733982224874
2023-05-10T12:28:21.325Z,32.822882707931434
2023-05-10T12:31:16.916Z,32.82084993692472
2023-05-10T12:34:19.442Z,34.77648435728221
2023-05-10T12:37:14.986Z,35.02055718611059
2023-05-10T12:40:12.662Z,33.06172940521203
2023-05-10T12:43:08.124Z,30.679550900648536
2023-05-10T12:46:07.773Z,31.493009032900403
2023-05-10T12:49:09.382Z,29.573209861583255
2023-05-10T12:52:05.765Z,31.057671748234775
2023-05-10T12:55:02.339Z,29.378996773634846
2023-05-10T12:57:57.870Z,28.47683557760911
2023-05-10T13:00:54.503Z,29.8799700590909
2023-05-10T13:03:51.000Z,28.570517219001143
2023-05-10T13:06:46.765Z,30.168176768574067
2023-05-10T13:09:42.139Z,28.070924968487468
2023-05-10T13:12:38.715Z,30.906859317076343
2023-05-10T13:15:36.251Z,28.259979519263325
2023-05-10T13:18:32.857Z,28.411337317582422
2023-05-10T13:21:29.417Z,27.25985623529001
2023-05-10T13:24:25.929Z,28.625667660988434
2023-05-10T13:27:21.674Z,27.762486199900138
2023-05-10T13:30:17.324Z,26.69446772826461
2023-05-10T13:33:12.631Z,27.506712483738426
2023-05-10T13:36:08.201Z,31.615555307011444
2023-05-10T13:39:05.783Z,32.40897770929274
2023-05-10T13:42:03.320Z,33.59975903276779
2023-05-10T13:44:58.862Z,34.76280481823068
2023-05-10T13:47:54.455Z,35.35379314937485
2023-05-10T13:50:50.988Z,31.79487407294298
2023-05-10T13:53:47.529Z,27.08786401003677
2023-05-10T13:56:45.126Z,32.71084788987772
2023-05-10T13:59:40.667Z,31.87921918767455
2023-05-10T14:02:37.307Z,31.690287793128245
2023-05-10T14:05:33.775Z,31.879868931370307
2023-05-10T14:08:29.348Z,31.93879764029978
2023-05-10T14:11:24.929Z,30.5816054000522
2023-05-10T14:14:21.500Z,29.255910491450823
2023-05-10T14:17:19.998Z,29.31207327364536
2023-05-10T14:20:15.536Z,28.52318320127589
2023-05-10T14:23:12.101Z,27.878683720066924
2023-05-10T14:26:09.729Z,27.91006751916579
2023-05-10T14:29:05.244Z,27.768582029082374
2023-05-10T14:32:03.874Z,27.147958663863566
2023-05-10T14:35:00.421Z,29.735049512684434
2023-05-10T14:37:55.963Z,29.327141275560546
2023-05-10T14:40:51.466Z,29.758492806458655
2023-05-10T14:43:47.064Z,31.5725976165425
2023-05-10T14:46:43.579Z,34.514762228449904
2023-05-10T14:49:39.143Z,35.64013839780221
2023-05-10T14:55:39.295Z,37.207168253677494
2023-05-10T14:58:36.835Z,34.910548423236555
2023-05-10T15:01:33.408Z,36.01718412278932
2023-05-10T15:04:29.331Z,35.08061484662247
2023-05-10T15:07:32.482Z,33.02436089376641
2023-05-10T15:10:28.007Z,34.62561716741213
2023-05-10T15:13:24.627Z,34.175718083881705
2023-05-10T15:16:21.191Z,33.16089699274557
2023-05-10T15:19:16.716Z,31.38781468084614
2023-05-10T15:22:15.229Z,27.856810256955903
2023-05-10T15:25:10.873Z,31.0430286838526
2023-05-10T15:28:06.390Z,34.85967544741592
2023-05-10T15:31:02.030Z,36.18803774075504
2023-05-10T15:33:58.512Z,36.68522746017024
2023-05-10T15:36:54.079Z,36.07925878159028
2023-05-10T15:39:49.586Z,36.52987088481787
2023-05-10T15:42:45.251Z,35.164818161218484
2023-05-10T15:45:42.791Z,36.579024219898464
2023-05-10T15:48:40.333Z,34.8221077079715
2023-05-10T15:51:36.748Z,32.38582779839788
2023-05-10T15:54:34.406Z,32.47266955069244
2023-05-10T15:57:31.992Z,32.15553036755387
2023-05-10T16:00:27.561Z,30.47863999820694
2023-05-10T16:03:25.144Z,32.057770454762384
2023-05-10T16:06:21.644Z,34.17338512990928
2023-05-10T16:09:17.260Z,34.79834244697128
2023-05-10T16:12:13.776Z,35.76561798985709
2023-05-10T16:15:10.397Z,37.0539834757172
2023-05-10T16:18:06.078Z,35.85559019412163
2023-05-10T16:21:02.492Z,34.262358403747335
2023-05-10T16:24:00.040Z,30.773317793569394
2023-05-10T16:26:56.636Z,29.295452848653333
2023-05-10T16:29:52.264Z,30.443233103166037
2023-05-10T16:32:49.728Z,31.139690691444585
2023-05-10T16:35:45.235Z,31.86886217166172
2023-05-10T16:38:41.827Z,32.64673960479193
2023-05-10T16:41:38.357Z,34.458401243997486
2023-05-10T16:44:35.950Z,34.26105488409423
2023-05-10T16:47:31.543Z,34.694745834393665
2023-05-10T16:50:28.104Z,35.5704860756613
2023-05-10T16:53:23.614Z,36.884290516921524
2023-05-10T16:56:21.503Z,37.41895918432306
2023-05-10T16:59:18.737Z,37.0831637749217
2023-05-10T17:02:15.284Z,38.00230763112933
2023-05-10T17:05:11.843Z,38.431786751881994
2023-05-10T17:08:08.408Z,40.263505872802874
2023-05-10T17:11:04.984Z,40.30729097233842
2023-05-10T17:14:01.542Z,40.44220893199245
2023-05-10T17:16:57.279Z,41.05522480727119
2023-05-10T17:19:52.631Z,42.42655822128894
2023-05-10T17:22:48.210Z,43.176254834069816
2023-05-10T17:25:44.777Z,42.55675868455883
2023-05-10T17:28:40.313Z,42.96613281661932
2023-05-10T17:31:35.900Z,43.55487415139455
2023-05-10T17:34:31.463Z,43.90741965248511
2023-05-10T17:37:26.981Z,44.577877626022826
2023-05-10T17:40:22.527Z,44.80477444023006
2023-05-10T17:43:20.181Z,45.54935475784232
2023-05-10T17:46:17.930Z,46.416827567613154
2023-05-10T17:49:13.299Z,46.811750330877956
2023-05-10T17:52:08.790Z,47.61915985344891
2023-05-10T17:55:05.363Z,48.357990138916406
2023-05-10T17:58:01.966Z,48.61980394613746
2023-05-10T18:00:57.623Z,48.90695473551211
2023-05-10T18:03:54.006Z,49.008356925375665
2023-05-10T18:06:49.612Z,49.77643490314902
2023-05-10T18:09:46.194Z,49.08508598086931
2023-05-10T18:12:41.724Z,49.97568204469297
2023-05-10T18:15:38.282Z,50.03511569321046
2023-05-10T18:18:33.908Z,50.274076638720175
2023-05-10T18:21:29.411Z,50.74192072503013
2023-05-10T18:24:37.698Z,50.83614861653279
2023-05-10T18:27:25.517Z,50.653121272685915
2023-05-10T18:30:22.088Z,50.35867157744918
2023-05-10T18:33:17.650Z,53.43154146376297
2023-05-10T18:36:14.226Z,52.9717910377168
2023-05-10T18:39:10.787Z,52.59009296498838
2023-05-10T18:42:07.339Z,52.07439598072368
2023-05-10T18:45:03.868Z,51.63004966395909
2023-05-10T18:47:59.479Z,53.3625483499696
2023-05-10T18:50:55.018Z,51.72301215260674
2023-05-10T18:53:50.574Z,52.0796411253166
2023-05-10T18:56:47.119Z,51.85709671647705
2023-05-10T18:59:53.561Z,51.77455887371845
2023-05-10T19:02:49.311Z,52.3154057986775
2023-05-10T19:05:48.875Z,51.974194627183245
2023-05-10T19:08:45.378Z,51.8679234449222
2023-05-10T19:11:42.954Z,53.12772319410715
2023-05-10T19:14:39.545Z,53.05578783436332
2023-05-10T19:17:40.886Z,53.61389019913288
2023-05-10T19:20:38.508Z,53.53050303727296
2023-05-10T19:23:35.239Z,53.49468554416366
2023-05-10T19:26:31.767Z,53.15818718478738
2023-05-10T19:29:30.421Z,53.836226633480436
2023-05-10T19:32:25.887Z,53.6107886811636
2023-05-10T19:35:21.417Z,52.609464008364924
2023-05-10T19:38:20.270Z,53.272170212838915
2023-05-10T19:41:15.523Z,53.09967576743544
2023-05-10T19:44:12.404Z,53.31716086670544
2023-05-10T19:47:08.854Z,55.3075470958913
2023-05-10T19:50:06.306Z,53.01049120971181
2023-05-10T19:53:01.767Z,54.31848791915262
2023-05-10T19:56:02.352Z,52.63443509731344
2023-05-10T19:58:57.919Z,52.55065957462722
2023-05-10T20:01:53.508Z,52.874713623198026
2023-05-10T20:04:49.964Z,51.81789934343259
2023-05-10T20:07:45.702Z,53.47397222464892
2023-05-10T20:10:42.132Z,52.20970467307932
2023-05-10T20:13:38.656Z,53.34156955402707
2023-05-10T20:16:35.281Z,54.683696041421804
2023-05-10T20:19:30.841Z,52.83159899620618
2023-05-10T20:22:27.369Z,53.28131966914494
2023-05-10T20:25:23.942Z,52.94622602345026
2023-05-10T20:28:23.501Z,52.60577558328903
2023-05-10T20:31:19.102Z,52.78637539564815
2023-05-10T20:34:14.587Z,54.35284620287669
2023-05-10T20:37:11.135Z,54.60575527516867
2023-05-10T20:40:07.716Z,54.83804242576083
2023-05-10T20:43:05.324Z,53.641415937314854
2023-05-10T20:46:04.909Z,54.566260680721165
2023-05-10T20:49:00.403Z,54.47883501245323
2023-05-10T20:51:55.968Z,54.89232046089377
2023-05-10T20:54:53.530Z,54.92599473574206
2023-05-10T20:57:48.944Z,54.467740225937376
2023-05-10T21:00:46.646Z,55.447483882853014
2023-05-10T21:03:42.084Z,53.46284455646736
2023-05-10T21:06:38.654Z,54.08679290960969
2023-05-10T21:09:35.236Z,53.742035792461536
2023-05-10T21:12:31.792Z,54.84026553759667
2023-05-10T21:15:28.350Z,54.184160817449836
2023-05-10T21:18:26.004Z,53.39391889165623
2023-05-10T21:21:22.481Z,54.60605403369972
2023-05-10T21:24:18.012Z,53.79007422485451
2023-05-10T21:27:13.599Z,53.98067723030221
2023-05-10T21:30:10.162Z,54.502060755184
2023-05-10T21:33:05.761Z,55.51936366523672
2023-05-10T21:36:02.323Z,57.69871201139934
2023-05-10T21:38:58.837Z,56.251749990917695
2023-05-10T21:41:54.360Z,56.061559548754914
2023-05-10T21:44:50.952Z,55.099983326000505
2023-05-10T21:47:46.526Z,56.06970662262966
2023-05-10T21:50:44.066Z,55.819603496773546
2023-05-10T21:53:40.629Z,56.185264709513824
2023-05-10T21:56:38.194Z,55.991456158396105
2023-05-10T21:59:34.742Z,57.3516267943402
2023-05-10T22:02:30.366Z,56.61599484888817
2023-05-10T22:05:25.870Z,56.84148310379958
2023-05-10T22:08:21.405Z,57.039817516217695
2023-05-10T22:11:16.957Z,56.834269450038335
2023-05-10T22:14:12.505Z,57.13938372867136
2023-05-10T22:17:08.355Z,56.50015298055954
2023-05-10T22:20:04.676Z,56.63154056490266
2023-05-10T22:23:01.219Z,56.7814605752884
2023-05-10T22:25:59.755Z,56.73547161548456
2023-05-10T22:28:55.316Z,56.87885099260512
2023-05-10T22:31:50.884Z,56.65691776529024
2023-05-10T22:34:46.477Z,56.63968291994816
2023-05-10T22:37:44.961Z,59.244206871578726
2023-05-10T22:40:42.572Z,57.67787137338377
2023-05-10T22:43:39.131Z,58.99005815617018
2023-05-10T22:46:34.792Z,59.601830143548504
2023-05-10T22:49:31.242Z,58.07164431874477
2023-05-10T22:52:26.810Z,59.08232076858876
2023-05-10T22:55:23.355Z,58.444244627201435
2023-05-10T22:58:18.927Z,58.139646079376384
2023-05-10T23:01:14.541Z,59.71467424146271
2023-05-10T23:04:10.040Z,59.681808679681936
2023-05-10T23:07:07.630Z,60.99946990071888
2023-05-10T23:10:03.206Z,60.78723524919822
2023-05-10T23:12:58.731Z,62.73300273791051
2023-05-10T23:15:54.322Z,62.592543970078765
2023-05-10T23:18:50.027Z,61.792475474226755
2023-05-10T23:21:45.422Z,62.73530384311919
2023-05-10T23:24:40.973Z,62.76003946623275
2023-05-10T23:27:36.529Z,63.19393420579621
2023-05-10T23:30:32.122Z,63.51137692516032
2023-05-10T23:33:27.654Z,64.48020863787208
2023-05-10T23:36:23.242Z,63.66623724806046
2023-05-10T23:39:18.770Z,63.55875107274187
2023-05-10T23:42:14.378Z,62.913819254193854
2023-05-10T23:45:10.959Z,63.88157447211988
2023-05-10T23:48:06.574Z,65.44623487256142
2023-05-10T23:51:01.985Z,65.21009814497533
2023-05-10T23:53:57.597Z,64.21501002571394
2023-05-10T23:56:54.173Z,65.96297867215532
2023-05-10T23:59:49.735Z,65.43815021487876
